Time;durP1;ratioP1;P1;durP2;ratioP2;P2;SDS_P1;SDS_P2;PMS_P1;PMS_P2;Temp;Humidity;BMP_temperature;BMP_pressure;BME280_temperature;BME280_humidity;BME280_pressure;Samples;Min_cycle;Max_cycle;Signal;HPM_P1;HPM_P2
2021/03/02 00:00:00;;;;;;;;;;;1.20;99.90;;;;;;5082270;28;19968;-77
2021/03/02 00:02:26;;;;;;;;;;;1.20;99.90;;;;;;5081839;28;19936;-75
2021/03/02 00:04:52;;;;;;;;;;;1.10;99.90;;;;;;5083146;28;19919;-78
2021/03/02 00:07:17;;;;;;;;;;;1.10;99.90;;;;;;5083476;28;19973;-74
2021/03/02 00:09:43;;;;;;;;;;;1.10;99.90;;;;;;5083367;28;19909;-78
2021/03/02 00:12:09;;;;;;;;;;;1.10;99.90;;;;;;5083134;28;19930;-77
2021/03/02 00:14:38;;;;;;;;;;;1.10;99.90;;;;;;5083321;28;20390;-78
2021/03/02 00:17:07;;;;;;;;;;;1.00;99.90;;;;;;5084094;28;20114;-77
2021/03/02 00:19:36;;;;;;;;;;;1.10;99.90;;;;;;5081626;28;19913;-77
2021/03/02 00:22:18;;;;;;;;;;;1.10;99.90;;;;;;5082207;28;20369;-77
2021/03/02 00:24:44;;;;;;;;;;;1.10;99.90;;;;;;5072965;28;19951;-75
2021/03/02 00:27:10;;;;;;;;;;;1.10;99.90;;;;;;5080236;28;19947;-74
2021/03/02 00:29:38;;;;;;;;;;;1.10;99.90;;;;;;5080554;28;19943;-74
2021/03/02 00:32:03;;;;;;;;;;;1.10;99.90;;;;;;5079150;28;19909;-77
2021/03/02 00:34:29;;;;;;;;;;;1.00;99.90;;;;;;5079714;28;19923;-77
2021/03/02 00:36:54;;;;;;;;;;;0.90;99.90;;;;;;5079664;28;19976;-76
2021/03/02 00:39:20;;;;;;;;;;;0.80;99.90;;;;;;5081278;28;19909;-77
2021/03/02 00:41:45;;;;;;;;;;;0.80;99.90;;;;;;5080741;28;19952;-78
2021/03/02 00:44:11;;;;;;;;;;;0.80;99.90;;;;;;5078952;28;19915;-77
2021/03/02 00:46:36;;;;;;;;;;;0.80;99.90;;;;;;5079116;28;19912;-76
2021/03/02 00:49:02;;;;;;;;;;;0.80;99.90;;;;;;5080588;28;19915;-76
2021/03/02 00:51:27;;;;;;;;;;;0.80;99.90;;;;;;5080166;28;20571;-78
2021/03/02 00:53:53;;;;;;;;;;;0.90;99.90;;;;;;5079213;28;19908;-77
2021/03/02 00:56:18;;;;;;;;;;;0.80;99.90;;;;;;5077729;28;20354;-76
2021/03/02 00:58:44;;;;;;;;;;;0.80;99.90;;;;;;5078114;28;20042;-78
2021/03/02 01:01:11;;;;;;;;;;;0.70;99.90;;;;;;5078030;28;19934;-77
2021/03/02 01:03:36;;;;;;;;;;;0.70;99.90;;;;;;5077505;28;19908;-75
2021/03/02 01:06:02;;;;;;;;;;;0.70;99.90;;;;;;5077924;28;19955;-77
2021/03/02 01:08:28;;;;;;;;;;;0.70;99.90;;;;;;5078461;28;19916;-78
2021/03/02 01:10:53;;;;;;;;;;;0.70;99.90;;;;;;5078262;28;19915;-77
2021/03/02 01:13:19;;;;;;;;;;;0.70;99.90;;;;;;5079080;28;19962;-75
2021/03/02 01:15:44;;;;;;;;;;;0.70;99.90;;;;;;5078707;28;20374;-78
2021/03/02 01:18:09;;;;;;;;;;;0.60;99.90;;;;;;5078827;28;19908;-77
2021/03/02 01:20:35;;;;;;;;;;;0.60;99.90;;;;;;5078642;28;19909;-76
2021/03/02 01:23:00;;;;;;;;;;;0.60;99.90;;;;;;5078733;28;20435;-78
2021/03/02 01:25:27;;;;;;;;;;;0.60;99.90;;;;;;5078556;28;19916;-77
2021/03/02 01:27:52;;;;;;;;;;;0.60;99.90;;;;;;5079606;28;19920;-78
2021/03/02 01:30:19;;;;;;;;;;;0.50;99.90;;;;;;5077596;28;19908;-77
2021/03/02 01:32:45;;;;;;;;;;;0.50;99.90;;;;;;5077465;28;19943;-77
2021/03/02 01:35:11;;;;;;;;;;;0.40;99.90;;;;;;5077402;28;19932;-76
2021/03/02 01:37:37;;;;;;;;;;;0.40;99.90;;;;;;5078944;28;19935;-78
2021/03/02 01:40:21;;;;;;;;;;;0.30;99.90;;;;;;5079222;28;19948;-77
2021/03/02 01:42:46;;;;;;;;;;;0.30;99.90;;;;;;5078967;28;19915;-77
2021/03/02 01:45:13;;;;;;;;;;;0.20;99.90;;;;;;5077797;28;19908;-76
2021/03/02 01:47:40;;;;;;;;;;;0.20;99.90;;;;;;5077866;28;19912;-78
2021/03/02 01:50:06;;;;;;;;;;;0.20;99.90;;;;;;5076968;28;19908;-77
2021/03/02 01:52:32;;;;;;;;;;;0.20;99.90;;;;;;5078232;28;19970;-75
2021/03/02 01:54:57;;;;;;;;;;;0.30;99.90;;;;;;5077707;28;20254;-77
2021/03/02 01:57:23;;;;;;;;;;;0.20;99.90;;;;;;5077247;28;20003;-77
2021/03/02 01:59:48;;;;;;;;;;;0.20;99.90;;;;;;5075901;28;19987;-77
2021/03/02 02:02:16;;;;;;;;;;;0.20;99.90;;;;;;5076860;28;19908;-77
2021/03/02 02:04:47;;;;;;;;;;;0.10;99.90;;;;;;5076773;28;19916;-76
2021/03/02 02:07:15;;;;;;;;;;;0.10;99.90;;;;;;5076318;28;19918;-77
2021/03/02 02:09:51;;;;;;;;;;;0.10;99.90;;;;;;5076361;28;19986;-77
2021/03/02 02:12:19;;;;;;;;;;;0.10;99.90;;;;;;5076035;28;19908;-75
2021/03/02 02:14:59;;;;;;;;;;;0.10;99.90;;;;;;5076086;28;19909;-75
2021/03/02 02:17:40;;;;;;;;;;;0.10;99.90;;;;;;5075205;28;19908;-77
2021/03/02 02:20:06;;;;;;;;;;;0.10;99.90;;;;;;5074575;28;20285;-78
2021/03/02 02:22:47;;;;;;;;;;;0.10;99.90;;;;;;5075653;28;19916;-78
2021/03/02 02:25:13;;;;;;;;;;;0.00;99.90;;;;;;5075114;28;19908;-76
2021/03/02 02:27:39;;;;;;;;;;;0.00;99.90;;;;;;5074690;28;20007;-78
2021/03/02 02:30:05;;;;;;;;;;;0.00;99.90;;;;;;5074059;28;19908;-74
2021/03/02 02:32:31;;;;;;;;;;;0.00;99.90;;;;;;5073866;28;20011;-77
2021/03/02 02:34:57;;;;;;;;;;;0.00;99.90;;;;;;5072101;28;19912;-77
2021/03/02 02:37:24;;;;;;;;;;;0.00;99.90;;;;;;5070742;28;19908;-75
2021/03/02 02:39:50;;;;;;;;;;;0.00;99.90;;;;;;5072447;28;19954;-75
2021/03/02 02:42:16;;;;;;;;;;;0.00;99.90;;;;;;5072499;28;19908;-76
2021/03/02 02:44:42;;;;;;;;;;;0.00;99.90;;;;;;5071281;28;19920;-75
2021/03/02 02:47:08;;;;;;;;;;;0.00;99.90;;;;;;5071880;28;19912;-76
2021/03/02 02:49:34;;;;;;;;;;;0.00;99.90;;;;;;5072117;28;20399;-76
2021/03/02 02:52:00;;;;;;;;;;;0.00;99.90;;;;;;5072411;28;19912;-75
2021/03/02 02:54:25;;;;;;;;;;;0.00;99.90;;;;;;5073611;28;19909;-77
2021/03/02 02:56:52;;;;;;;;;;;0.00;99.90;;;;;;5092235;28;19908;-76
2021/03/02 02:59:21;;;;;;;;;;;0.00;99.90;;;;;;5093076;28;20007;-76
2021/03/02 03:01:50;;;;;;;;;;;0.00;99.90;;;;;;5093873;28;20290;-76
2021/03/02 03:04:18;;;;;;;;;;;0.00;99.90;;;;;;5092916;28;19908;-76
2021/03/02 03:06:44;;;;;;;;;;;0.00;99.90;;;;;;5091737;28;20011;-77
2021/03/02 03:09:11;;;;;;;;;;;-0.10;99.90;;;;;;5092312;28;19916;-76
2021/03/02 03:11:39;;;;;;;;;;;-0.20;99.90;;;;;;5093388;28;20388;-76
2021/03/02 03:14:05;;;;;;;;;;;-0.20;99.90;;;;;;5093129;28;19911;-76
2021/03/02 03:16:32;;;;;;;;;;;-0.30;99.90;;;;;;5091743;28;19962;-75
2021/03/02 03:18:58;;;;;;;;;;;-0.30;99.90;;;;;;5092340;28;20434;-75
2021/03/02 03:21:24;;;;;;;;;;;-0.30;99.90;;;;;;5091616;28;19916;-76
2021/03/02 03:23:50;;;;;;;;;;;-0.40;99.90;;;;;;5080158;28;19909;-76
2021/03/02 03:26:17;;;;;;;;;;;-0.40;99.90;;;;;;5071397;28;19986;-76
2021/03/02 03:28:44;;;;;;;;;;;-0.40;99.90;;;;;;5071774;28;19909;-75
2021/03/02 03:31:10;;;;;;;;;;;-0.40;99.90;;;;;;5071611;28;19916;-76
2021/03/02 03:33:37;;;;;;;;;;;-0.40;99.90;;;;;;5071642;28;19916;-76
2021/03/02 03:36:03;;;;;;;;;;;-0.40;99.90;;;;;;5071444;28;19909;-76
2021/03/02 03:38:28;;;;;;;;;;;-0.40;99.90;;;;;;5071613;28;19935;-76
2021/03/02 03:40:54;;;;;;;;;;;-0.40;99.90;;;;;;5071571;28;19983;-76
2021/03/02 03:43:19;;;;;;;;;;;-0.40;99.90;;;;;;5071788;28;19970;-76
2021/03/02 03:45:45;;;;;;;;;;;-0.50;99.90;;;;;;5069819;28;19909;-76
2021/03/02 03:48:11;;;;;;;;;;;-0.50;99.90;;;;;;5071600;28;19916;-76
2021/03/02 03:50:36;;;;;;;;;;;-0.50;99.90;;;;;;5071550;28;19940;-76
2021/03/02 03:53:03;;;;;;;;;;;-0.60;99.90;;;;;;5071451;28;20289;-76
2021/03/02 03:55:33;;;;;;;;;;;-0.60;99.90;;;;;;5071256;28;19912;-75
2021/03/02 03:57:58;;;;;;;;;;;-0.60;99.90;;;;;;5071352;28;20183;-76
2021/03/02 04:00:24;;;;;;;;;;;-0.70;99.90;;;;;;5069995;28;19955;-75
2021/03/02 04:02:50;;;;;;;;;;;-0.70;99.90;;;;;;5070197;28;20007;-76
2021/03/02 04:05:16;;;;;;;;;;;-0.70;99.90;;;;;;5071355;28;19908;-76
2021/03/02 04:07:42;;;;;;;;;;;-0.70;99.90;;;;;;5070884;28;19985;-75
2021/03/02 04:10:08;;;;;;;;;;;-0.70;99.90;;;;;;5071457;28;20365;-76
2021/03/02 04:12:40;;;;;;;;;;;-0.70;99.90;;;;;;5071329;28;20397;-75
2021/03/02 04:15:10;;;;;;;;;;;-0.80;99.90;;;;;;5071268;28;20289;-76
2021/03/02 04:17:35;;;;;;;;;;;-0.80;99.90;;;;;;5071018;28;19909;-76
2021/03/02 04:20:02;;;;;;;;;;;-0.90;99.90;;;;;;5071204;28;19909;-76
2021/03/02 04:22:29;;;;;;;;;;;-1.00;99.90;;;;;;5071084;28;19962;-77
2021/03/02 04:24:54;;;;;;;;;;;-1.00;99.90;;;;;;5071042;28;19915;-76
2021/03/02 04:27:20;;;;;;;;;;;-1.00;99.90;;;;;;5070805;28;19912;-75
2021/03/02 04:29:45;;;;;;;;;;;-1.00;99.90;;;;;;5069619;28;19909;-76
2021/03/02 04:32:11;;;;;;;;;;;-1.00;99.90;;;;;;5071132;28;20373;-75
2021/03/02 04:34:36;;;;;;;;;;;-1.00;99.90;;;;;;5071286;28;19924;-76
2021/03/02 04:37:02;;;;;;;;;;;-1.00;99.90;;;;;;5070735;28;19966;-75
2021/03/02 04:39:27;;;;;;;;;;;-1.00;99.90;;;;;;5071476;28;19912;-75
2021/03/02 04:41:52;;;;;;;;;;;-1.00;99.90;;;;;;5071315;28;19961;-75
2021/03/02 04:44:18;;;;;;;;;;;-1.00;99.90;;;;;;5071385;28;19908;-76
2021/03/02 04:46:43;;;;;;;;;;;-1.10;99.90;;;;;;5071558;28;19913;-75
2021/03/02 04:49:09;;;;;;;;;;;-1.10;99.90;;;;;;5074820;28;19908;-75
2021/03/02 04:51:35;;;;;;;;;;;-1.20;99.90;;;;;;5074695;28;20007;-75
2021/03/02 04:54:00;;;;;;;;;;;-1.20;99.90;;;;;;5074557;28;19989;-75
2021/03/02 04:56:26;;;;;;;;;;;-1.20;99.90;;;;;;5074088;28;19915;-77
2021/03/02 04:58:51;;;;;;;;;;;-1.20;99.90;;;;;;5064851;28;20016;-76
2021/03/02 05:01:17;;;;;;;;;;;-1.20;99.90;;;;;;5073818;28;19908;-75
2021/03/02 05:03:42;;;;;;;;;;;-1.20;99.90;;;;;;5074733;28;20003;-76
2021/03/02 05:06:08;;;;;;;;;;;-1.20;99.90;;;;;;5074337;28;19932;-76
2021/03/02 05:08:33;;;;;;;;;;;-1.30;99.90;;;;;;5074327;28;19999;-75
2021/03/02 05:10:59;;;;;;;;;;;-1.30;99.90;;;;;;5074117;28;19909;-75
2021/03/02 05:13:24;;;;;;;;;;;-1.30;99.90;;;;;;5072776;28;19916;-76
2021/03/02 05:15:50;;;;;;;;;;;-1.30;99.90;;;;;;5073896;28;19915;-75
2021/03/02 05:18:15;;;;;;;;;;;-1.30;99.90;;;;;;5074231;28;19915;-75
2021/03/02 05:20:40;;;;;;;;;;;-1.30;99.90;;;;;;5074002;28;19916;-76
2021/03/02 05:23:06;;;;;;;;;;;-1.30;99.90;;;;;;5074010;28;19995;-75
2021/03/02 05:25:31;;;;;;;;;;;-1.40;99.90;;;;;;5074453;28;19927;-76
2021/03/02 05:27:57;;;;;;;;;;;-1.40;99.90;;;;;;5073367;28;19912;-75
2021/03/02 05:30:22;;;;;;;;;;;-1.40;99.90;;;;;;5072263;28;20323;-75
2021/03/02 05:32:48;;;;;;;;;;;-1.40;99.90;;;;;;5073809;28;19912;-75
2021/03/02 05:35:13;;;;;;;;;;;-1.40;99.90;;;;;;5074033;28;19908;-75
2021/03/02 05:37:39;;;;;;;;;;;-1.30;99.90;;;;;;5073419;28;19908;-76
2021/03/02 05:40:05;;;;;;;;;;;-1.30;99.90;;;;;;5074216;28;19909;-76
2021/03/02 05:42:32;;;;;;;;;;;-1.30;99.90;;;;;;5073705;28;19909;-75
2021/03/02 05:44:58;;;;;;;;;;;-1.40;99.90;;;;;;5074000;28;19943;-75
2021/03/02 05:47:23;;;;;;;;;;;-1.40;99.90;;;;;;5073301;28;19952;-75
2021/03/02 05:49:49;;;;;;;;;;;-1.40;99.90;;;;;;5073583;28;20379;-75
2021/03/02 05:52:15;;;;;;;;;;;-1.50;99.90;;;;;;5073420;28;20357;-75
2021/03/02 05:54:40;;;;;;;;;;;-1.50;99.90;;;;;;5073235;28;20023;-76
2021/03/02 05:57:06;;;;;;;;;;;-1.60;99.90;;;;;;5073005;28;19912;-75
2021/03/02 05:59:32;;;;;;;;;;;-1.60;99.90;;;;;;5072347;28;20391;-75
2021/03/02 06:01:58;;;;;;;;;;;-1.70;99.90;;;;;;5073098;28;19908;-76
2021/03/02 06:04:25;;;;;;;;;;;-1.70;99.90;;;;;;5073387;28;19909;-77
2021/03/02 06:06:57;;;;;;;;;;;-1.60;99.90;;;;;;5072576;28;19957;-75
2021/03/02 06:09:22;;;;;;;;;;;-1.60;99.90;;;;;;5073310;28;20297;-75
2021/03/02 06:11:48;;;;;;;;;;;-1.60;99.90;;;;;;5072977;28;19912;-77
2021/03/02 06:14:24;;;;;;;;;;;-1.60;99.90;;;;;;5073060;28;19970;-75
2021/03/02 06:16:51;;;;;;;;;;;-1.60;99.90;;;;;;5072585;28;20007;-75
2021/03/02 06:19:17;;;;;;;;;;;-1.60;99.90;;;;;;5073029;28;19916;-75
2021/03/02 06:21:42;;;;;;;;;;;-1.60;99.90;;;;;;5072799;28;19948;-76
2021/03/02 06:24:08;;;;;;;;;;;-1.60;99.90;;;;;;5080105;28;20364;-76
2021/03/02 06:26:35;;;;;;;;;;;-1.60;99.90;;;;;;5092552;28;19947;-75
2021/03/02 06:29:11;;;;;;;;;;;-1.60;99.90;;;;;;5090487;28;19909;-76
2021/03/02 06:31:39;;;;;;;;;;;-1.60;99.90;;;;;;5072301;28;20010;-77
2021/03/02 06:34:12;;;;;;;;;;;-1.50;99.90;;;;;;5071568;28;19917;-75
2021/03/02 06:36:39;;;;;;;;;;;-1.50;99.90;;;;;;5072434;28;20438;-75
2021/03/02 06:39:22;;;;;;;;;;;-1.40;99.90;;;;;;5072654;28;19915;-77
2021/03/02 06:41:49;;;;;;;;;;;-1.40;99.90;;;;;;5072574;28;19909;-75
2021/03/02 06:44:14;;;;;;;;;;;-1.40;99.90;;;;;;5072807;28;19916;-75
2021/03/02 06:46:40;;;;;;;;;;;-1.30;99.90;;;;;;5072183;28;19913;-75
2021/03/02 06:49:06;;;;;;;;;;;-1.20;99.90;;;;;;5072421;28;19951;-75
2021/03/02 06:51:32;;;;;;;;;;;-1.20;99.90;;;;;;5072495;28;19948;-75
2021/03/02 06:54:07;;;;;;;;;;;-1.20;99.90;;;;;;5080591;28;20007;-75
2021/03/02 06:56:33;;;;;;;;;;;-1.20;99.90;;;;;;5071825;28;19908;-76
2021/03/02 06:59:19;;;;;;;;;;;-1.10;99.90;;;;;;5072272;28;19958;-76
2021/03/02 07:01:45;;;;;;;;;;;-1.10;99.90;;;;;;5072199;28;19915;-75
2021/03/02 07:04:12;;;;;;;;;;;-1.00;99.90;;;;;;5072194;28;19908;-76
2021/03/02 07:06:38;;;;;;;;;;;-1.00;99.90;;;;;;5071769;28;19913;-75
2021/03/02 07:09:04;;;;;;;;;;;-0.90;99.90;;;;;;5067510;28;19987;-75
2021/03/02 07:11:30;;;;;;;;;;;-0.90;99.90;;;;;;5061878;28;20285;-75
2021/03/02 07:13:56;;;;;;;;;;;-0.90;99.90;;;;;;5070818;28;19999;-76
2021/03/02 07:16:21;;;;;;;;;;;-0.90;99.90;;;;;;5070681;28;19962;-76
2021/03/02 07:18:47;;;;;;;;;;;-0.80;99.90;;;;;;5071983;28;19908;-75
2021/03/02 07:21:13;;;;;;;;;;;-0.80;99.90;;;;;;5071841;28;19909;-75
2021/03/02 07:23:40;;;;;;;;;;;-0.70;99.90;;;;;;5064564;28;19908;-76
2021/03/02 07:26:06;;;;;;;;;;;-0.60;99.90;;;;;;5086794;28;20748;-75
2021/03/02 07:28:35;;;;;;;;;;;-0.50;99.90;;;;;;5091836;28;19959;-75
2021/03/02 07:31:00;;;;;;;;;;;-0.50;99.90;;;;;;5091954;28;19909;-76
2021/03/02 07:33:26;;;;;;;;;;;-0.40;99.90;;;;;;5091402;28;19923;-75
2021/03/02 07:35:57;;;;;;;;;;;-0.30;99.90;;;;;;5089370;28;20372;-75
2021/03/02 07:38:23;;;;;;;;;;;-0.20;99.90;;;;;;5061361;28;20289;-75
2021/03/02 07:40:50;;;;;;;;;;;-0.10;99.90;;;;;;5071172;28;19908;-75
2021/03/02 07:43:22;;;;;;;;;;;0.00;99.90;;;;;;5070105;28;19908;-76
2021/03/02 07:45:48;;;;;;;;;;;0.10;99.90;;;;;;5068321;28;19908;-77
2021/03/02 07:48:23;;;;;;;;;;;0.20;99.90;;;;;;5068431;28;19919;-75
2021/03/02 07:51:08;;;;;;;;;;;0.30;99.90;;;;;;5059540;28;19918;-75
2021/03/02 07:53:34;;;;;;;;;;;0.40;99.90;;;;;;5061434;28;19921;-75
2021/03/02 07:56:11;;;;;;;;;;;0.60;99.90;;;;;;5067311;28;20007;-75
2021/03/02 07:58:37;;;;;;;;;;;0.70;99.90;;;;;;5070236;28;19995;-75
2021/03/02 08:01:23;;;;;;;;;;;0.80;99.90;;;;;;5070193;28;19999;-75
2021/03/02 08:03:49;;;;;;;;;;;0.90;99.90;;;;;;5068260;28;19908;-76
2021/03/02 08:06:29;;;;;;;;;;;1.10;99.90;;;;;;5069471;28;19919;-76
2021/03/02 08:08:55;;;;;;;;;;;1.30;99.90;;;;;;5069706;28;19931;-75
2021/03/02 08:11:29;;;;;;;;;;;1.40;99.90;;;;;;5069652;28;20366;-76
2021/03/02 08:13:54;;;;;;;;;;;1.50;99.90;;;;;;5070579;28;20507;-76
2021/03/02 08:16:39;;;;;;;;;;;1.70;99.90;;;;;;5067110;28;19908;-76
2021/03/02 08:19:25;;;;;;;;;;;1.90;99.90;;;;;;5065325;28;20015;-76
2021/03/02 08:21:50;;;;;;;;;;;2.00;99.90;;;;;;5071743;28;20003;-76
2021/03/02 08:24:17;;;;;;;;;;;2.30;99.90;;;;;;5066145;28;20080;-76
2021/03/02 08:26:43;;;;;;;;;;;2.70;99.90;;;;;;5071497;28;19966;-76
2021/03/02 08:29:09;;;;;;;;;;;3.40;99.90;;;;;;5073099;28;19908;-77
2021/03/02 08:31:35;;;;;;;;;;;4.30;99.90;;;;;;5071988;28;20289;-76
2021/03/02 08:34:02;;;;;;;;;;;5.20;99.90;;;;;;5074021;28;19917;-78
2021/03/02 08:36:28;;;;;;;;;;;6.20;99.90;;;;;;5071844;28;19917;-77
2021/03/02 08:38:54;;;;;;;;;;;7.20;99.90;;;;;;5075805;28;19931;-77
2021/03/02 08:41:33;;;;;;;;;;;8.20;99.90;;;;;;5071196;28;20270;-77
2021/03/02 08:43:58;;;;;;;;;;;9.10;99.90;;;;;;5073626;28;19999;-77
2021/03/02 08:46:25;;;;;;;;;;;10.10;99.90;;;;;;5070238;28;20361;-77
2021/03/02 08:48:51;;;;;;;;;;;10.90;99.90;;;;;;5075259;28;19991;-77
2021/03/02 08:51:21;;;;;;;;;;;11.50;99.00;;;;;;5070449;28;19999;-77
2021/03/02 08:53:49;;;;;;;;;;;12.10;97.50;;;;;;5075921;28;19908;-77
2021/03/02 08:56:15;;;;;;;;;;;12.80;96.00;;;;;;5069090;28;19960;-78
2021/03/02 08:58:41;;;;;;;;;;;13.40;95.50;;;;;;5067647;28;19912;-78
2021/03/02 09:01:09;;;;;;;;;;;13.80;94.40;;;;;;5063340;28;20218;-78
2021/03/02 09:03:38;;;;;;;;;;;13.90;93.90;;;;;;5068971;28;20270;-78
2021/03/02 09:06:10;;;;;;;;;;;14.30;93.00;;;;;;5072880;28;20011;-78
2021/03/02 09:08:41;;;;;;;;;;;14.70;92.60;;;;;;5073594;28;19912;-78
2021/03/02 09:11:07;;;;;;;;;;;14.90;91.90;;;;;;5073845;28;19912;-76
2021/03/02 09:13:33;;;;;;;;;;;15.30;91.40;;;;;;5070051;28;19954;-76
2021/03/02 09:15:59;;;;;;;;;;;15.60;90.60;;;;;;5076635;28;19917;-76
2021/03/02 09:18:24;;;;;;;;;;;16.00;88.90;;;;;;5065515;28;20330;-76
2021/03/02 09:20:50;;;;;;;;;;;16.30;88.90;;;;;;5061971;28;19908;-76
2021/03/02 09:23:16;;;;;;;;;;;16.60;87.40;;;;;;5070243;28;20082;-76
2021/03/02 09:25:41;;;;;;;;;;;17.10;84.40;;;;;;5067916;28;19916;-78
2021/03/02 09:28:14;;;;;;;;;;;17.20;83.40;;;;;;5055165;28;19986;-78
2021/03/02 09:30:40;;;;;;;;;;;17.40;82.00;;;;;;5076864;28;20217;-78
2021/03/02 09:33:06;;;;;;;;;;;17.70;81.50;;;;;;5093544;28;20012;-79
2021/03/02 09:35:31;;;;;;;;;;;18.00;78.80;;;;;;5093240;28;19919;-80
2021/03/02 09:37:57;;;;;;;;;;;18.20;79.10;;;;;;5065532;28;19975;-78
2021/03/02 09:40:22;;;;;;;;;;;18.40;77.20;;;;;;5067210;28;20357;-79
2021/03/02 09:42:55;;;;;;;;;;;18.80;76.30;;;;;;5064264;28;19908;-79
2021/03/02 09:45:21;;;;;;;;;;;19.10;75.50;;;;;;5067580;28;20419;-80
2021/03/02 09:47:48;;;;;;;;;;;19.30;73.20;;;;;;5062111;28;19913;-78
2021/03/02 09:50:14;;;;;;;;;;;19.40;73.10;;;;;;5062905;28;19931;-79
2021/03/02 09:52:40;;;;;;;;;;;19.50;73.00;;;;;;5071407;28;19934;-78
2021/03/02 09:55:08;;;;;;;;;;;19.40;71.50;;;;;;5070917;28;19916;-79
2021/03/02 09:57:44;;;;;;;;;;;19.50;73.20;;;;;;5071981;28;20258;-79
2021/03/02 10:00:09;;;;;;;;;;;19.70;70.00;;;;;;5070602;28;19936;-77
2021/03/02 10:02:46;;;;;;;;;;;19.80;68.60;;;;;;5070589;28;19966;-78
2021/03/02 10:05:12;;;;;;;;;;;19.80;69.80;;;;;;5056719;28;19915;-77
2021/03/02 10:07:43;;;;;;;;;;;20.10;69.40;;;;;;5060471;28;19999;-77
2021/03/02 10:10:09;;;;;;;;;;;20.60;68.70;;;;;;5075762;28;19912;-76
2021/03/02 10:12:35;;;;;;;;;;;20.80;67.80;;;;;;5073799;28;19909;-77
2021/03/02 10:15:00;;;;;;;;;;;21.00;67.10;;;;;;5073243;28;19999;-79
2021/03/02 10:17:35;;;;;;;;;;;21.00;64.20;;;;;;5071074;28;19962;-77
2021/03/02 10:20:07;;;;;;;;;;;21.00;65.00;;;;;;5073037;28;19943;-77
2021/03/02 10:22:33;;;;;;;;;;;21.00;66.50;;;;;;5064300;28;20003;-77
2021/03/02 10:24:58;;;;;;;;;;;21.20;66.40;;;;;;5073420;28;19990;-77
2021/03/02 10:27:23;;;;;;;;;;;21.40;63.70;;;;;;5071849;28;19917;-79
2021/03/02 10:29:49;;;;;;;;;;;21.60;62.80;;;;;;5070268;28;20354;-77
2021/03/02 10:32:15;;;;;;;;;;;21.50;61.50;;;;;;5067492;28;19912;-77
2021/03/02 10:34:41;;;;;;;;;;;21.40;61.80;;;;;;5062870;28;19916;-77
2021/03/02 10:37:08;;;;;;;;;;;21.40;62.00;;;;;;5060893;28;19908;-79
2021/03/02 10:39:34;;;;;;;;;;;21.30;62.60;;;;;;5079877;28;19909;-78
2021/03/02 10:42:00;;;;;;;;;;;21.50;62.00;;;;;;5070339;28;19909;-77
2021/03/02 10:44:26;;;;;;;;;;;21.60;62.40;;;;;;5058619;28;19917;-78
2021/03/02 10:46:51;;;;;;;;;;;21.80;61.70;;;;;;5066484;28;19942;-77
2021/03/02 10:49:17;;;;;;;;;;;22.00;59.90;;;;;;5066922;28;19912;-78
2021/03/02 10:51:42;;;;;;;;;;;22.10;60.00;;;;;;5065066;28;19916;-77
2021/03/02 10:54:08;;;;;;;;;;;22.10;59.40;;;;;;5070948;28;19923;-77
2021/03/02 10:56:34;;;;;;;;;;;21.90;60.00;;;;;;5070272;28;19920;-77
2021/03/02 10:58:59;;;;;;;;;;;21.70;58.50;;;;;;5063752;28;19908;-76
2021/03/02 11:01:25;;;;;;;;;;;21.40;58.80;;;;;;5058686;28;19924;-77
2021/03/02 11:03:51;;;;;;;;;;;21.30;59.00;;;;;;5069565;28;19932;-77
2021/03/02 11:06:17;;;;;;;;;;;21.20;58.80;;;;;;5072709;28;19932;-77
2021/03/02 11:08:44;;;;;;;;;;;20.90;59.90;;;;;;5069062;28;19915;-77
2021/03/02 11:11:13;;;;;;;;;;;21.00;61.20;;;;;;5070084;28;19908;-77
2021/03/02 11:13:40;;;;;;;;;;;21.00;60.60;;;;;;5068587;28;19915;-78
2021/03/02 11:16:05;;;;;;;;;;;21.10;59.90;;;;;;5071056;28;19932;-77
2021/03/02 11:18:31;;;;;;;;;;;21.10;58.30;;;;;;5063370;28;20397;-77
2021/03/02 11:20:56;;;;;;;;;;;21.20;59.30;;;;;;5066200;28;19908;-76
2021/03/02 11:23:22;;;;;;;;;;;21.50;57.80;;;;;;5071095;28;20022;-77
2021/03/02 11:25:47;;;;;;;;;;;21.70;58.40;;;;;;5062859;28;19915;-77
2021/03/02 11:28:13;;;;;;;;;;;22.00;56.40;;;;;;5057982;28;20007;-77
2021/03/02 11:30:39;;;;;;;;;;;22.20;55.50;;;;;;5054409;28;19912;-77
2021/03/02 11:33:05;;;;;;;;;;;22.40;55.80;;;;;;5066419;28;20373;-78
2021/03/02 11:35:31;;;;;;;;;;;22.40;54.00;;;;;;5059003;28;20015;-76
2021/03/02 11:37:56;;;;;;;;;;;22.30;54.70;;;;;;5062911;28;19915;-77
2021/03/02 11:40:22;;;;;;;;;;;22.40;54.30;;;;;;5068965;28;20396;-77
2021/03/02 11:42:52;;;;;;;;;;;22.50;54.00;;;;;;5067545;28;19908;-77
2021/03/02 11:45:18;;;;;;;;;;;22.60;53.80;;;;;;5056792;28;19908;-76
2021/03/02 11:47:43;;;;;;;;;;;22.60;53.80;;;;;;5081278;28;19961;-77
2021/03/02 11:50:09;;;;;;;;;;;22.50;54.20;;;;;;5055146;28;19909;-77
2021/03/02 11:52:35;;;;;;;;;;;22.50;55.10;;;;;;5066930;28;19915;-76
2021/03/02 11:55:01;;;;;;;;;;;22.70;55.40;;;;;;5056715;28;20003;-76
2021/03/02 11:57:26;;;;;;;;;;;22.60;54.60;;;;;;5061735;28;19912;-77
2021/03/02 11:59:52;;;;;;;;;;;21.80;55.50;;;;;;5065788;28;19918;-77
2021/03/02 12:02:17;;;;;;;;;;;21.00;55.80;;;;;;5072165;28;19952;-77
2021/03/02 12:04:43;;;;;;;;;;;20.40;56.90;;;;;;5069211;28;19909;-77
2021/03/02 12:07:09;;;;;;;;;;;20.10;58.40;;;;;;5069838;28;19919;-77
2021/03/02 12:09:35;;;;;;;;;;;20.10;57.90;;;;;;5060056;28;19924;-76
2021/03/02 12:12:00;;;;;;;;;;;19.70;57.10;;;;;;5061891;28;20020;-77
2021/03/02 12:14:26;;;;;;;;;;;19.20;58.10;;;;;;5068694;28;19908;-77
2021/03/02 12:16:51;;;;;;;;;;;18.60;58.30;;;;;;5069532;28;19939;-76
2021/03/02 12:19:17;;;;;;;;;;;18.10;59.10;;;;;;5067323;28;19909;-76
2021/03/02 12:21:42;;;;;;;;;;;17.70;59.40;;;;;;5070538;28;20371;-77
2021/03/02 12:24:08;;;;;;;;;;;17.30;60.00;;;;;;5069480;28;19908;-76
2021/03/02 12:26:33;;;;;;;;;;;17.00;61.50;;;;;;5067750;28;19909;-76
2021/03/02 12:28:59;;;;;;;;;;;16.60;62.40;;;;;;5067996;28;19912;-76
2021/03/02 12:31:25;;;;;;;;;;;16.40;60.60;;;;;;5068917;28;19912;-76
2021/03/02 12:33:50;;;;;;;;;;;16.20;62.30;;;;;;5072981;28;19916;-77
2021/03/02 12:36:16;;;;;;;;;;;16.00;61.20;;;;;;5065454;28;20375;-76
2021/03/02 12:38:41;;;;;;;;;;;15.90;61.40;;;;;;5069475;28;19916;-76
2021/03/02 12:41:07;;;;;;;;;;;15.90;62.20;;;;;;5069447;28;20377;-76
2021/03/02 12:43:32;;;;;;;;;;;15.80;62.80;;;;;;5069646;28;19912;-77
2021/03/02 12:45:58;;;;;;;;;;;15.70;62.90;;;;;;5068860;28;19909;-76
2021/03/02 12:48:23;;;;;;;;;;;15.60;62.30;;;;;;5067683;28;20387;-76
2021/03/02 12:50:49;;;;;;;;;;;15.50;62.10;;;;;;5069233;28;19908;-75
2021/03/02 12:53:14;;;;;;;;;;;15.40;62.00;;;;;;5060239;28;20609;-76
2021/03/02 12:55:41;;;;;;;;;;;15.30;62.60;;;;;;5061977;28;19948;-76
2021/03/02 12:58:09;;;;;;;;;;;15.20;62.60;;;;;;5067782;28;21552;-77
2021/03/02 13:00:34;;;;;;;;;;;15.20;62.60;;;;;;5061522;28;19955;-77
2021/03/02 13:03:00;;;;;;;;;;;15.10;62.20;;;;;;5068160;28;19948;-77
2021/03/02 13:05:28;;;;;;;;;;;15.00;62.30;;;;;;5070014;28;19908;-77
2021/03/02 13:07:57;;;;;;;;;;;15.00;62.70;;;;;;5070080;28;19912;-77
2021/03/02 13:10:23;;;;;;;;;;;15.10;61.60;;;;;;5073309;28;19908;-77
2021/03/02 13:12:48;;;;;;;;;;;15.10;62.10;;;;;;5071188;28;20419;-77
2021/03/02 13:15:14;;;;;;;;;;;15.10;62.10;;;;;;5072839;28;19908;-77
2021/03/02 13:17:40;;;;;;;;;;;15.10;62.90;;;;;;5065847;28;19954;-77
2021/03/02 13:20:06;;;;;;;;;;;15.20;62.90;;;;;;5067000;28;20090;-77
2021/03/02 13:22:31;;;;;;;;;;;15.20;62.50;;;;;;5072539;28;20293;-77
2021/03/02 13:24:57;;;;;;;;;;;15.10;62.30;;;;;;5072634;28;19915;-77
2021/03/02 13:27:23;;;;;;;;;;;15.10;62.00;;;;;;5071090;28;20342;-77
2021/03/02 13:29:51;;;;;;;;;;;15.10;60.40;;;;;;5073673;28;19908;-77
2021/03/02 13:32:19;;;;;;;;;;;15.10;61.20;;;;;;5080987;28;19915;-78
2021/03/02 13:34:45;;;;;;;;;;;15.10;61.70;;;;;;5077299;28;20293;-77
2021/03/02 13:37:14;;;;;;;;;;;15.20;60.70;;;;;;5072255;28;19908;-77
2021/03/02 13:39:41;;;;;;;;;;;15.10;61.60;;;;;;5069349;28;19919;-77
2021/03/02 13:42:07;;;;;;;;;;;15.10;62.10;;;;;;5071280;28;19994;-77
2021/03/02 13:44:33;;;;;;;;;;;15.00;60.20;;;;;;5077594;28;19939;-77
2021/03/02 13:46:58;;;;;;;;;;;15.10;60.40;;;;;;5068059;28;19913;-77
2021/03/02 13:49:24;;;;;;;;;;;15.20;61.30;;;;;;5067838;28;19909;-77
2021/03/02 13:51:49;;;;;;;;;;;15.20;60.60;;;;;;5064972;28;20361;-77
2021/03/02 13:54:15;;;;;;;;;;;15.20;60.10;;;;;;5068338;28;19912;-77
2021/03/02 13:56:41;;;;;;;;;;;15.20;59.70;;;;;;5073628;28;19908;-77
2021/03/02 13:59:07;;;;;;;;;;;15.30;60.10;;;;;;5078796;28;19913;-76
2021/03/02 14:01:33;;;;;;;;;;;15.30;60.80;;;;;;5071269;28;19955;-76
2021/03/02 14:04:01;;;;;;;;;;;15.20;60.40;;;;;;5071430;28;19908;-77
2021/03/02 14:06:28;;;;;;;;;;;15.20;60.20;;;;;;5065294;28;19962;-77
2021/03/02 14:08:54;;;;;;;;;;;15.20;59.60;;;;;;5070696;28;20441;-77
2021/03/02 14:11:19;;;;;;;;;;;15.20;59.60;;;;;;5071691;28;19908;-77
2021/03/02 14:13:45;;;;;;;;;;;15.20;60.00;;;;;;5071422;28;19965;-77
2021/03/02 14:16:11;;;;;;;;;;;15.20;60.30;;;;;;5071329;28;20313;-77
2021/03/02 14:18:36;;;;;;;;;;;15.20;61.00;;;;;;5068166;28;19953;-77